Time;durP1;ratioP1;P1;durP2;ratioP2;P2;SDS_P1;SDS_P2;PMS_P1;PMS_P2;Temp;Humidity;BMP_temperature;BMP_pressure;BME280_temperature;BME280_humidity;BME280_pressure;Samples;Min_cycle;Max_cycle;Signal;HPM_P1;HPM_P2
2022/09/25 00:02:05;;;;;;;4.90;2.87;;;13.60;98.00;;;;;;5034626;28;20463;-67
2022/09/25 00:04:32;;;;;;;7.10;3.50;;;13.70;98.00;;;;;;5052108;28;20951;-67
2022/09/25 00:06:59;;;;;;;7.50;3.17;;;13.70;98.00;;;;;;5052081;28;20456;-67
2022/09/25 00:09:26;;;;;;;10.30;3.60;;;13.60;98.00;;;;;;5052068;28;20464;-67
2022/09/25 00:11:56;;;;;;;7.77;2.80;;;13.70;98.00;;;;;;5051987;28;20484;-67
2022/09/25 00:14:24;;;;;;;5.03;2.80;;;13.70;98.00;;;;;;5051959;28;20492;-67
2022/09/25 00:16:51;;;;;;;4.70;2.60;;;13.70;98.00;;;;;;5051873;28;20950;-67
2022/09/25 00:22:05;;;;;;;3.53;2.37;;;13.60;98.00;;;;;;5051944;28;20443;-67
2022/09/25 00:24:32;;;;;;;8.17;3.80;;;13.60;98.00;;;;;;5052149;28;20442;-66
2022/09/25 00:27:01;;;;;;;4.60;3.20;;;13.60;98.00;;;;;;5051646;28;20456;-67
2022/09/25 00:29:29;;;;;;;6.17;3.50;;;13.60;98.00;;;;;;5051851;28;20451;-67
2022/09/25 00:31:57;;;;;;;6.03;2.53;;;13.60;98.00;;;;;;5051119;28;20461;-67
2022/09/25 00:34:24;;;;;;;4.57;2.60;;;13.50;98.00;;;;;;5051354;28;20891;-67
2022/09/25 00:36:51;;;;;;;4.43;2.63;;;13.50;98.00;;;;;;5051529;28;20466;-67
2022/09/25 00:39:18;;;;;;;6.00;3.30;;;13.70;98.00;;;;;;5033776;28;20457;-67
2022/09/25 00:41:45;;;;;;;4.70;2.57;;;13.90;98.00;;;;;;5051529;28;20465;-67
2022/09/25 00:44:51;;;;;;;3.23;2.30;;;13.50;98.00;;;;;;5051495;28;20457;-67
2022/09/25 00:47:20;;;;;;;2.10;1.73;;;13.40;98.00;;;;;;5051628;28;20459;-67
2022/09/25 00:49:48;;;;;;;5.23;2.40;;;13.50;98.00;;;;;;5051696;28;20859;-67
2022/09/25 00:52:15;;;;;;;4.33;2.77;;;13.50;98.00;;;;;;5051114;28;20465;-67
2022/09/25 00:54:47;;;;;;;4.47;2.63;;;13.40;98.00;;;;;;5033790;28;20455;-67
2022/09/25 00:57:17;;;;;;;2.73;2.10;;;13.20;98.00;;;;;;5051532;28;20886;-67
2022/09/25 00:59:50;;;;;;;3.70;2.10;;;13.00;98.00;;;;;;5051413;28;20460;-67
2022/09/25 01:02:21;;;;;;;2.30;2.10;;;13.00;98.00;;;;;;5051478;28;20490;-67
2022/09/25 01:04:49;;;;;;;2.80;2.30;;;13.00;98.00;;;;;;5051180;28;20452;-67
2022/09/25 01:07:16;;;;;;;6.10;3.40;;;13.10;98.00;;;;;;5051317;28;20458;-67
2022/09/25 01:09:43;;;;;;;4.30;2.40;;;13.20;98.00;;;;;;5051027;28;20514;-67
2022/09/25 01:12:11;;;;;;;3.17;2.10;;;13.20;98.00;;;;;;5051111;28;20464;-67
2022/09/25 01:14:39;;;;;;;4.13;2.30;;;13.30;98.00;;;;;;5033430;28;20485;-67
2022/09/25 01:17:14;;;;;;;2.47;2.17;;;13.20;98.00;;;;;;5051061;28;20461;-67
2022/09/25 01:19:55;;;;;;;3.40;1.70;;;13.30;98.00;;;;;;5050909;28;20468;-67
2022/09/25 01:22:34;;;;;;;3.30;1.97;;;13.20;98.00;;;;;;5050846;28;20986;-67
2022/09/25 01:25:11;;;;;;;2.90;2.10;;;13.10;98.00;;;;;;5050485;28;20468;-67
2022/09/25 01:27:48;;;;;;;4.93;2.77;;;13.00;98.00;;;;;;5051075;28;20489;-67
2022/09/25 01:30:19;;;;;;;5.80;3.07;;;13.00;98.00;;;;;;5050666;28;20877;-67
2022/09/25 01:32:59;;;;;;;2.73;1.93;;;13.00;98.00;;;;;;5050732;28;20495;-67
2022/09/25 01:35:36;;;;;;;2.60;1.93;;;13.00;98.00;;;;;;5050634;28;20460;-67
2022/09/25 01:38:14;;;;;;;7.60;2.40;;;13.00;98.00;;;;;;5050502;28;20458;-67
2022/09/25 01:40:48;;;;;;;2.90;2.40;;;13.00;98.00;;;;;;5051056;28;20552;-67
2022/09/25 01:43:18;;;;;;;4.03;2.77;;;13.00;98.00;;;;;;5033538;28;20857;-67
2022/09/25 01:45:53;;;;;;;4.63;2.60;;;13.00;98.00;;;;;;5054875;28;20479;-67
2022/09/25 01:48:25;;;;;;;3.40;2.30;;;13.00;98.00;;;;;;5055025;28;20537;-67
2022/09/25 01:50:59;;;;;;;2.97;1.80;;;12.90;98.00;;;;;;5055109;28;20978;-67
2022/09/25 01:53:31;;;;;;;4.10;2.67;;;12.90;98.00;;;;;;5054711;28;20491;-67
2022/09/25 01:56:02;;;;;;;2.90;2.20;;;12.90;98.00;;;;;;5054955;28;20458;-67
2022/09/25 01:58:33;;;;;;;2.00;1.80;;;13.00;98.00;;;;;;5054327;28;20471;-67
2022/09/25 02:01:06;;;;;;;2.27;1.90;;;12.90;98.00;;;;;;5054566;28;20457;-67
2022/09/25 02:03:38;;;;;;;3.10;2.30;;;12.90;98.00;;;;;;5054759;28;20492;-67
2022/09/25 02:06:09;;;;;;;3.63;2.53;;;12.90;98.00;;;;;;5037054;28;20450;-67
2022/09/25 02:08:42;;;;;;;3.40;2.60;;;13.00;98.00;;;;;;5054488;28;20545;-67
2022/09/25 02:11:11;;;;;;;4.83;2.73;;;13.20;98.00;;;;;;5054369;28;20461;-67
2022/09/25 02:13:45;;;;;;;4.40;2.33;;;13.20;98.00;;;;;;5054119;28;20488;-67
2022/09/25 02:16:16;;;;;;;3.67;2.47;;;13.10;98.00;;;;;;5036896;28;20849;-67
2022/09/25 02:21:39;;;;;;;6.17;2.80;;;13.00;98.00;;;;;;5054246;28;20465;-67
2022/09/25 02:24:16;;;;;;;3.80;2.63;;;13.10;98.00;;;;;;5054003;28;20471;-66
2022/09/25 02:26:44;;;;;;;3.73;2.50;;;13.20;98.00;;;;;;5054181;28;20447;-67
2022/09/25 02:29:11;;;;;;;4.90;2.67;;;13.10;98.00;;;;;;5036211;28;20454;-67
2022/09/25 02:31:44;;;;;;;3.00;2.40;;;13.10;98.00;;;;;;5053942;28;20481;-67
2022/09/25 02:34:12;;;;;;;3.83;2.20;;;13.10;98.00;;;;;;5053824;28;21011;-67
2022/09/25 02:36:39;;;;;;;10.30;2.73;;;13.10;98.00;;;;;;5054096;28;20500;-66
2022/09/25 02:39:08;;;;;;;2.70;2.10;;;13.10;98.00;;;;;;5054019;28;20447;-67
2022/09/25 02:41:51;;;;;;;4.13;2.83;;;13.10;98.00;;;;;;5053808;28;20468;-67
2022/09/25 02:44:27;;;;;;;2.73;2.17;;;13.00;98.00;;;;;;5053680;28;21052;-67
2022/09/25 02:47:11;;;;;;;5.07;2.87;;;13.00;98.00;;;;;;5053764;28;20458;-67
2022/09/25 02:49:48;;;;;;;5.10;2.40;;;13.00;98.00;;;;;;5053841;28;20464;-67
2022/09/25 02:52:22;;;;;;;4.23;2.27;;;13.10;98.00;;;;;;5037340;28;20511;-67
2022/09/25 02:54:56;;;;;;;3.50;2.63;;;13.10;98.00;;;;;;5052765;28;20540;-67
2022/09/25 02:57:31;;;;;;;5.40;2.60;;;13.10;98.00;;;;;;5053696;28;20455;-67
2022/09/25 03:00:03;;;;;;;5.33;3.30;;;13.00;98.00;;;;;;5053492;28;20481;-67
2022/09/25 03:02:34;;;;;;;4.53;3.00;;;13.00;98.00;;;;;;5053333;28;20464;-67
2022/09/25 03:05:02;;;;;;;4.30;2.63;;;13.10;98.00;;;;;;5053459;28;20465;-67
2022/09/25 03:08:36;;;;;;;4.70;3.03;;;13.20;98.00;;;;;;5036037;28;20455;-67
2022/09/25 03:10:17;;;;;;;5.17;3.10;;;13.30;98.00;;;;;;5038259;28;20455;-67
2022/09/25 03:12:44;;;;;;;4.07;2.90;;;13.40;98.00;;;;;;5053373;28;20469;-67
2022/09/25 03:15:13;;;;;;;9.60;4.00;;;13.40;98.00;;;;;;5053233;28;20485;-67
2022/09/25 03:17:42;;;;;;;5.63;2.60;;;13.40;98.00;;;;;;5053273;28;20449;-67
2022/09/25 03:20:09;;;;;;;3.77;2.40;;;13.40;98.00;;;;;;5052803;28;20464;-67
2022/09/25 03:22:37;;;;;;;3.07;2.30;;;13.50;98.00;;;;;;5053075;28;20455;-67
2022/09/25 03:25:05;;;;;;;5.83;3.40;;;13.40;98.00;;;;;;5035288;28;20484;-67
2022/09/25 03:27:32;;;;;;;4.40;2.73;;;13.50;98.00;;;;;;5052867;28;20500;-67
2022/09/25 03:30:01;;;;;;;8.33;3.13;;;13.60;98.00;;;;;;5052804;28;20504;-67
2022/09/25 03:32:28;;;;;;;6.43;3.23;;;13.60;98.00;;;;;;5052936;28;20458;-67
2022/09/25 03:34:56;;;;;;;6.57;3.53;;;13.50;98.00;;;;;;5052561;28;20494;-67
2022/09/25 03:37:25;;;;;;;6.23;3.30;;;13.50;98.00;;;;;;5052791;28;20552;-67
2022/09/25 03:39:52;;;;;;;3.70;2.90;;;13.50;98.00;;;;;;5051167;28;20460;-67
2022/09/25 03:42:19;;;;;;;5.43;2.70;;;13.40;98.00;;;;;;5034839;28;20464;-67
2022/09/25 03:44:46;;;;;;;5.70;3.10;;;13.40;98.00;;;;;;5052522;28;20509;-67
2022/09/25 03:47:14;;;;;;;5.67;2.77;;;13.50;98.00;;;;;;5018732;28;20530;-67
2022/09/25 03:49:42;;;;;;;7.93;3.17;;;13.50;98.00;;;;;;5052420;28;20453;-67
2022/09/25 03:52:11;;;;;;;11.17;4.80;;;13.70;98.00;;;;;;5052294;28;20532;-67
2022/09/25 03:54:40;;;;;;;9.70;4.10;;;13.60;98.00;;;;;;5052375;28;20489;-67
2022/09/25 03:57:07;;;;;;;6.67;3.27;;;13.60;98.00;;;;;;5034911;28;20461;-67
2022/09/25 03:59:34;;;;;;;7.60;3.40;;;13.50;98.00;;;;;;5052258;28;20456;-67
2022/09/25 04:02:02;;;;;;;6.87;3.30;;;13.70;98.00;;;;;;5052327;28;20827;-67
2022/09/25 04:04:29;;;;;;;3.93;2.70;;;13.60;98.00;;;;;;5052351;28;20499;-67
2022/09/25 04:06:56;;;;;;;6.57;2.80;;;13.50;98.00;;;;;;5052081;28;20548;-66
2022/09/25 04:09:24;;;;;;;9.60;3.30;;;13.50;98.00;;;;;;5052029;28;20446;-67
2022/09/25 04:11:54;;;;;;;4.60;2.60;;;13.50;98.00;;;;;;5052015;28;20463;-67
2022/09/25 04:14:21;;;;;;;6.53;3.23;;;13.60;98.00;;;;;;5051957;28;20895;-67
2022/09/25 04:16:48;;;;;;;4.30;2.53;;;13.50;98.00;;;;;;5051416;28;20503;-67
2022/09/25 04:19:15;;;;;;;5.83;3.53;;;13.60;98.00;;;;;;5051581;28;20471;-67
2022/09/25 04:21:42;;;;;;;6.17;3.30;;;13.90;98.00;;;;;;5051762;28;20467;-67
2022/09/25 04:26:56;;;;;;;6.43;2.97;;;14.10;98.00;;;;;;5051839;28;20957;-67
2022/09/25 04:29:23;;;;;;;3.27;2.30;;;14.00;98.00;;;;;;5051806;28;20460;-67
2022/09/25 04:34:31;;;;;;;4.50;2.73;;;14.10;98.00;;;;;;5050587;28;20575;-66
2022/09/25 04:36:58;;;;;;;5.97;3.10;;;14.00;98.00;;;;;;5051189;28;20869;-67
2022/09/25 04:39:26;;;;;;;4.80;2.73;;;13.90;98.00;;;;;;5051457;28;20525;-67
2022/09/25 04:41:55;;;;;;;6.90;3.83;;;13.90;98.00;;;;;;5051512;28;20455;-67
2022/09/25 04:44:22;;;;;;;3.97;2.57;;;13.80;98.00;;;;;;5051360;28;20834;-67
2022/09/25 04:46:49;;;;;;;6.17;3.33;;;13.70;98.00;;;;;;5051453;28;20451;-67
2022/09/25 04:49:17;;;;;;;4.90;3.00;;;13.60;98.00;;;;;;5051357;28;20469;-67
2022/09/25 04:51:44;;;;;;;5.57;3.03;;;13.50;98.00;;;;;;5051774;28;20530;-67
2022/09/25 04:54:15;;;;;;;6.07;2.90;;;13.40;98.00;;;;;;5051594;28;20486;-67
2022/09/25 04:56:43;;;;;;;7.67;3.87;;;13.40;98.00;;;;;;5051594;28;20452;-67
2022/09/25 04:59:11;;;;;;;6.27;3.87;;;13.40;98.00;;;;;;5051614;28;20461;-67
2022/09/25 05:01:39;;;;;;;4.87;2.90;;;13.40;98.00;;;;;;5051271;28;20459;-67
2022/09/25 05:04:06;;;;;;;8.73;4.90;;;13.50;98.00;;;;;;5051295;28;20551;-67
2022/09/25 05:06:33;;;;;;;6.80;3.50;;;13.70;98.00;;;;;;5051274;28;20460;-67
2022/09/25 05:09:02;;;;;;;6.83;3.50;;;13.80;98.00;;;;;;5051282;28;20464;-67
2022/09/25 05:11:29;;;;;;;5.50;2.67;;;13.90;98.00;;;;;;5033427;28;20555;-67
2022/09/25 05:13:56;;;;;;;10.23;3.63;;;13.90;98.00;;;;;;5033518;28;20823;-67
2022/09/25 05:16:24;;;;;;;8.20;3.23;;;14.00;98.00;;;;;;5050975;28;20517;-67
2022/09/25 05:18:52;;;;;;;12.90;4.10;;;14.10;98.00;;;;;;5050423;28;20478;-67
2022/09/25 05:21:19;;;;;;;4.90;3.13;;;14.10;98.00;;;;;;5051243;28;20814;-67
2022/09/25 05:23:46;;;;;;;7.20;3.80;;;13.90;98.00;;;;;;5051149;28;20444;-67
2022/09/25 05:26:13;;;;;;;6.57;3.00;;;13.80;98.00;;;;;;5033419;28;20519;-67
2022/09/25 05:28:40;;;;;;;8.73;4.43;;;13.80;98.00;;;;;;5050871;28;20463;-67
2022/09/25 05:31:10;;;;;;;6.87;4.03;;;13.70;98.00;;;;;;5050974;28;20457;-67
2022/09/25 05:33:38;;;;;;;6.10;3.50;;;13.80;98.00;;;;;;5050976;28;20461;-67
2022/09/25 05:36:07;;;;;;;6.57;3.80;;;13.90;98.00;;;;;;5050966;28;20454;-67
2022/09/25 05:38:36;;;;;;;8.90;3.20;;;13.70;98.00;;;;;;5051243;28;20456;-67
2022/09/25 05:41:05;;;;;;;8.30;3.77;;;13.60;98.00;;;;;;5050854;28;20458;-67
2022/09/25 05:43:34;;;;;;;4.50;3.07;;;13.50;98.00;;;;;;5051111;28;20460;-67
2022/09/25 05:46:01;;;;;;;5.53;3.53;;;13.60;98.00;;;;;;5050578;28;20513;-67
2022/09/25 05:48:28;;;;;;;11.70;4.57;;;13.70;98.00;;;;;;5033428;28;20702;-67
2022/09/25 05:50:57;;;;;;;10.60;3.50;;;13.70;98.00;;;;;;5016817;28;20473;-67
2022/09/25 05:53:25;;;;;;;4.37;2.80;;;13.70;98.00;;;;;;5051119;28;20464;-67
2022/09/25 05:55:53;;;;;;;5.33;2.87;;;13.80;98.00;;;;;;5050964;28;20558;-67
2022/09/25 05:58:22;;;;;;;9.00;3.97;;;13.90;98.00;;;;;;5050832;28;20946;-67
2022/09/25 06:00:49;;;;;;;4.90;3.00;;;13.90;98.00;;;;;;5050719;28;20457;-67
2022/09/25 06:03:17;;;;;;;6.07;2.90;;;14.00;98.00;;;;;;5050736;28;20457;-67
2022/09/25 06:05:45;;;;;;;6.30;3.50;;;14.10;98.00;;;;;;5050695;28;20459;-67
2022/09/25 06:08:14;;;;;;;5.07;2.80;;;14.00;98.00;;;;;;5050645;28;20942;-67
2022/09/25 06:10:41;;;;;;;4.73;2.90;;;14.00;98.00;;;;;;5050150;28;20457;-67
2022/09/25 06:13:09;;;;;;;7.67;3.30;;;14.00;98.00;;;;;;5032995;28;20510;-67
2022/09/25 06:15:37;;;;;;;6.77;3.60;;;14.00;98.00;;;;;;5050572;28;20491;-67
2022/09/25 06:18:04;;;;;;;5.03;3.00;;;14.10;98.00;;;;;;5050474;28;20458;-66
2022/09/25 06:20:33;;;;;;;7.40;3.60;;;14.20;98.00;;;;;;5050376;28;20455;-67
2022/09/25 06:23:00;;;;;;;6.13;3.03;;;14.20;98.00;;;;;;5032682;28;20537;-67
2022/09/25 06:25:31;;;;;;;4.10;2.70;;;14.30;98.00;;;;;;5050529;28;20449;-67
2022/09/25 06:28:00;;;;;;;4.60;2.80;;;14.40;98.00;;;;;;5050517;28;20981;-67
2022/09/25 06:30:32;;;;;;;5.60;3.50;;;14.50;98.00;;;;;;5050896;28;20452;-67
2022/09/25 06:33:00;;;;;;;4.90;3.27;;;14.50;98.00;;;;;;5054008;28;21025;-67
2022/09/25 06:35:28;;;;;;;6.03;3.60;;;14.40;98.00;;;;;;5053904;28;20561;-67
2022/09/25 06:37:58;;;;;;;5.17;2.73;;;14.40;98.00;;;;;;5036253;28;20830;-67
2022/09/25 06:40:26;;;;;;;5.20;2.83;;;14.40;98.00;;;;;;5053632;28;20546;-66
2022/09/25 06:42:57;;;;;;;3.47;2.17;;;14.30;98.00;;;;;;5053841;28;20533;-65
2022/09/25 06:45:25;;;;;;;3.73;2.27;;;14.40;98.00;;;;;;5053618;28;20468;-65
2022/09/25 06:47:56;;;;;;;4.30;3.00;;;14.50;98.00;;;;;;5053804;28;20538;-65
2022/09/25 06:50:30;;;;;;;2.60;2.20;;;14.50;98.00;;;;;;5054073;28;20485;-66
2022/09/25 06:52:58;;;;;;;4.70;2.60;;;14.40;98.00;;;;;;5054177;28;20463;-66
2022/09/25 06:55:25;;;;;;;3.07;2.23;;;14.30;98.00;;;;;;5053439;28;20574;-65
2022/09/25 06:57:52;;;;;;;5.33;3.00;;;14.30;98.00;;;;;;5053526;28;20461;-67
2022/09/25 07:00:23;;;;;;;7.30;3.30;;;14.30;98.00;;;;;;5053585;28;20802;-65
2022/09/25 07:05:35;;;;;;;3.77;2.50;;;14.40;98.00;;;;;;5053551;28;20529;-64
2022/09/25 07:08:02;;;;;;;3.30;2.57;;;14.40;98.00;;;;;;5053421;28;20979;-65
2022/09/25 07:10:29;;;;;;;5.20;2.80;;;14.40;98.00;;;;;;5035738;28;20845;-65
2022/09/25 07:12:57;;;;;;;3.90;2.73;;;14.40;98.00;;;;;;5035639;28;20464;-64
2022/09/25 07:15:25;;;;;;;4.73;2.67;;;14.40;98.00;;;;;;5019030;28;20482;-64
2022/09/25 07:17:52;;;;;;;6.90;3.37;;;14.50;98.00;;;;;;5053261;28;20468;-66
2022/09/25 07:20:20;;;;;;;5.30;3.07;;;14.50;98.00;;;;;;5053105;28;20890;-65
2022/09/25 07:22:48;;;;;;;4.93;3.10;;;14.80;98.00;;;;;;5052944;28;20511;-65
2022/09/25 07:25:15;;;;;;;4.27;2.77;;;14.90;98.00;;;;;;5052986;28;21049;-65
2022/09/25 07:27:42;;;;;;;4.50;2.93;;;14.80;98.00;;;;;;5035329;28;20828;-64
2022/09/25 07:30:10;;;;;;;4.60;2.90;;;14.80;98.00;;;;;;5053215;28;20465;-64
2022/09/25 07:32:39;;;;;;;4.23;2.73;;;14.90;98.00;;;;;;5035209;28;20465;-65
2022/09/25 07:35:07;;;;;;;6.17;2.80;;;15.10;98.00;;;;;;5052666;28;20495;-65
2022/09/25 07:37:34;;;;;;;5.40;2.73;;;15.10;98.00;;;;;;5052960;28;20474;-65
2022/09/25 07:40:04;;;;;;;3.37;2.47;;;15.20;98.00;;;;;;5035063;28;20454;-63
2022/09/25 07:42:31;;;;;;;4.47;2.50;;;15.20;98.00;;;;;;5035117;28;20496;-67
2022/09/25 07:44:58;;;;;;;3.90;2.43;;;15.10;98.00;;;;;;5052704;28;20873;-65
2022/09/25 07:47:25;;;;;;;4.30;2.67;;;15.10;98.00;;;;;;5052882;28;20454;-64
2022/09/25 07:49:53;;;;;;;3.30;2.40;;;15.20;98.00;;;;;;5035265;28;20464;-64
2022/09/25 07:52:21;;;;;;;4.20;2.77;;;15.20;98.00;;;;;;5053081;28;20495;-66
2022/09/25 07:54:48;;;;;;;4.70;2.53;;;15.20;98.00;;;;;;5052468;28;20483;-65
2022/09/25 07:57:19;;;;;;;4.27;2.90;;;15.10;98.00;;;;;;5052117;28;20971;-65
2022/09/25 07:59:46;;;;;;;7.40;2.90;;;15.10;98.00;;;;;;5052260;28;20691;-65
2022/09/25 08:02:13;;;;;;;4.27;2.90;;;15.10;98.00;;;;;;5052302;28;20947;-65
2022/09/25 08:04:40;;;;;;;4.77;3.20;;;15.10;98.00;;;;;;5052282;28;20473;-64
2022/09/25 08:07:09;;;;;;;4.67;2.90;;;15.20;98.00;;;;;;5050326;28;20959;-65
2022/09/25 08:09:36;;;;;;;4.87;2.80;;;15.20;98.00;;;;;;5053034;28;21267;-65
2022/09/25 08:12:03;;;;;;;4.03;2.80;;;15.10;98.00;;;;;;5049657;28;20471;-66
2022/09/25 08:14:31;;;;;;;5.33;3.23;;;15.10;98.00;;;;;;5048254;28;20946;-65
2022/09/25 08:17:11;;;;;;;3.80;2.63;;;15.20;98.00;;;;;;5030876;28;20973;-65
2022/09/25 08:19:38;;;;;;;4.10;2.70;;;15.10;98.00;;;;;;5049469;28;20497;-65
2022/09/25 08:22:06;;;;;;;7.10;3.50;;;15.20;98.00;;;;;;5049285;28;20461;-65
2022/09/25 08:24:34;;;;;;;3.20;2.13;;;15.30;98.00;;;;;;5049054;28;20846;-71
2022/09/25 08:27:06;;;;;;;2.30;2.00;;;15.40;98.00;;;;;;5049433;28;20461;-73
2022/09/25 08:29:33;;;;;;;3.30;2.37;;;15.90;98.00;;;;;;5049249;28;20460;-72
2022/09/25 08:32:01;;;;;;;3.13;2.00;;;16.40;98.00;;;;;;5049266;28;20453;-72
2022/09/25 08:34:28;;;;;;;4.30;2.37;;;16.90;98.00;;;;;;5048497;28;20472;-73
2022/09/25 08:36:56;;;;;;;6.60;3.20;;;17.30;98.00;;;;;;5049039;28;20486;-71
2022/09/25 08:39:23;;;;;;;5.67;2.73;;;17.70;98.00;;;;;;5049441;28;20880;-74
2022/09/25 08:41:55;;;;;;;3.83;2.60;;;17.90;98.00;;;;;;5049268;28;20469;-72
2022/09/25 08:44:27;;;;;;;5.17;2.67;;;18.00;98.00;;;;;;5049216;28;20462;-65
2022/09/25 08:49:47;;;;;;;3.20;2.23;;;17.70;98.00;;;;;;5047200;28;20537;-65
2022/09/25 08:52:18;;;;;;;5.80;3.10;;;17.50;98.00;;;;;;5032271;28;20462;-65
2022/09/25 08:54:45;;;;;;;5.33;2.60;;;17.20;98.00;;;;;;5048203;28;20457;-66
2022/09/25 08:57:26;;;;;;;5.90;3.23;;;17.10;98.00;;;;;;5049349;28;20814;-66
2022/09/25 08:59:57;;;;;;;2.40;2.20;;;16.90;98.00;;;;;;5048644;28;21037;-65
2022/09/25 09:02:37;;;;;;;8.20;3.50;;;16.80;98.00;;;;;;5049134;28;20534;-66
2022/09/25 09:05:07;;;;;;;5.83;2.70;;;16.70;98.00;;;;;;5041629;28;20470;-65
2022/09/25 09:07:39;;;;;;;3.37;2.57;;;16.50;98.00;;;;;;5048842;28;20552;-65
2022/09/25 09:10:15;;;;;;;5.03;2.47;;;16.40;98.00;;;;;;5048665;28;20465;-65
2022/09/25 09:12:46;;;;;;;4.73;3.13;;;16.50;98.00;;;;;;5048538;28;20543;-64
2022/09/25 09:15:26;;;;;;;3.87;2.50;;;16.40;98.00;;;;;;5048664;28;20489;-65
2022/09/25 09:17:54;;;;;;;4.33;2.60;;;16.40;98.00;;;;;;5048810;28;20517;-65
2022/09/25 09:20:34;;;;;;;5.90;2.97;;;16.20;98.00;;;;;;5048611;28;20469;-66
2022/09/25 09:23:03;;;;;;;6.80;2.80;;;16.30;98.00;;;;;;5030735;28;20545;-65
2022/09/25 09:25:42;;;;;;;4.30;2.60;;;16.20;98.00;;;;;;5048915;28;20865;-65
2022/09/25 09:28:30;;;;;;;5.80;2.50;;;16.40;98.00;;;;;;5030988;28;20456;-66
2022/09/25 09:31:05;;;;;;;4.10;2.30;;;16.40;98.00;;;;;;5040946;28;20467;-65
2022/09/25 09:33:45;;;;;;;4.17;2.43;;;16.40;98.00;;;;;;5031585;28;22292;-62
2022/09/25 09:36:19;;;;;;;3.13;2.10;;;16.60;98.00;;;;;;5048347;28;20489;-65
2022/09/25 09:38:59;;;;;;;4.03;2.57;;;16.70;98.00;;;;;;5048374;28;20457;-67
2022/09/25 09:41:42;;;;;;;5.00;2.83;;;16.70;98.00;;;;;;5048569;28;20472;-65
2022/09/25 09:44:35;;;;;;;3.80;2.40;;;16.50;98.00;;;;;;5048318;28;20460;-65
2022/09/25 09:47:08;;;;;;;4.50;2.50;;;16.50;98.00;;;;;;5017185;28;20472;-65
2022/09/25 09:49:42;;;;;;;4.93;2.80;;;16.50;98.00;;;;;;5046754;28;20510;-65
2022/09/25 09:52:15;;;;;;;3.77;2.40;;;16.60;98.00;;;;;;5048550;28;21903;-64
2022/09/25 09:54:48;;;;;;;3.27;2.33;;;16.60;98.00;;;;;;5048278;28;20453;-64
2022/09/25 09:57:21;;;;;;;3.67;2.83;;;16.60;98.00;;;;;;5048379;28;20493;-65
2022/09/25 09:59:55;;;;;;;6.47;3.20;;;16.70;98.00;;;;;;5048235;28;20462;-65
2022/09/25 10:02:32;;;;;;;4.90;2.90;;;16.70;98.00;;;;;;5048401;28;20461;-65
2022/09/25 10:05:04;;;;;;;4.70;2.60;;;16.80;98.00;;;;;;5049775;28;20445;-65
2022/09/25 10:07:36;;;;;;;4.57;2.80;;;16.90;98.00;;;;;;5052008;28;20465;-64
2022/09/25 10:10:11;;;;;;;5.23;2.70;;;16.90;98.00;;;;;;5052079;28;20549;-64
2022/09/25 10:12:42;;;;;;;3.47;2.30;;;16.80;98.00;;;;;;5051987;28;20830;-66
2022/09/25 10:15:18;;;;;;;5.30;3.50;;;16.70;98.00;;;;;;5053423;28;20506;-65
2022/09/25 10:17:45;;;;;;;5.23;2.77;;;16.80;98.00;;;;;;5054565;28;20772;-65
2022/09/25 10:20:17;;;;;;;6.30;2.63;;;16.60;98.00;;;;;;5054078;28;20468;-64
2022/09/25 10:22:46;;;;;;;6.97;2.83;;;16.60;98.00;;;;;;5054295;28;20468;-65
2022/09/25 10:25:13;;;;;;;2.97;2.37;;;16.50;98.00;;;;;;5054149;28;20464;-65
2022/09/25 10:27:44;;;;;;;4.60;2.97;;;16.50;98.00;;;;;;5054246;28;20453;-65
2022/09/25 10:30:21;;;;;;;4.37;2.73;;;16.50;98.00;;;;;;5053953;28;20978;-65
2022/09/25 10:32:59;;;;;;;4.13;2.63;;;16.40;98.00;;;;;;5054123;28;20554;-65
2022/09/25 10:35:29;;;;;;;5.37;2.57;;;16.50;98.00;;;;;;5053793;28;20951;-63
2022/09/25 10:38:00;;;;;;;6.07;3.00;;;16.50;98.00;;;;;;5054174;28;20526;-66
2022/09/25 10:40:31;;;;;;;5.57;3.27;;;16.50;98.00;;;;;;5053775;28;20470;-66
2022/09/25 10:43:17;;;;;;;8.77;3.23;;;16.50;98.00;;;;;;5053846;28;20805;-65
2022/09/25 10:45:47;;;;;;;6.27;2.93;;;16.40;98.00;;;;;;5053819;28;20452;-65
2022/09/25 10:51:17;;;;;;;5.10;2.90;;;16.40;98.00;;;;;;5053937;28;20937;-65
2022/09/25 10:53:45;;;;;;;7.03;3.67;;;16.30;98.00;;;;;;5054070;28;20514;-64
2022/09/25 10:56:17;;;;;;;4.47;3.20;;;16.00;98.00;;;;;;5053440;28;20495;-65
2022/09/25 10:58:49;;;;;;;4.90;2.73;;;15.90;98.00;;;;;;5036345;28;20461;-64
2022/09/25 11:01:18;;;;;;;3.97;2.90;;;16.00;98.00;;;;;;5035669;28;21044;-65
2022/09/25 11:03:49;;;;;;;3.77;2.50;;;16.10;98.00;;;;;;5053552;28;20512;-66
2022/09/25 11:06:23;;;;;;;6.20;2.80;;;16.10;98.00;;;;;;5053644;28;20469;-64
2022/09/25 11:09:00;;;;;;;6.33;3.07;;;15.90;98.00;;;;;;5053445;28;20828;-65
2022/09/25 11:11:28;;;;;;;5.83;3.37;;;15.80;98.00;;;;;;5053129;28;20464;-65
2022/09/25 11:13:58;;;;;;;8.30;3.20;;;15.70;98.00;;;;;;5053204;28;20472;-65
2022/09/25 11:16:46;;;;;;;6.10;3.50;;;15.60;98.00;;;;;;5052420;28;20487;-65
2022/09/25 11:19:15;;;;;;;5.07;2.80;;;15.70;98.00;;;;;;5053244;28;20895;-65
2022/09/25 11:21:50;;;;;;;5.00;3.07;;;15.60;98.00;;;;;;5053270;28;20865;-64
2022/09/25 11:24:23;;;;;;;5.10;3.03;;;15.60;98.00;;;;;;5053207;28;20471;-64
2022/09/25 11:26:58;;;;;;;4.70;3.23;;;15.50;98.00;;;;;;5053249;28;20449;-65
2022/09/25 11:29:36;;;;;;;5.43;2.90;;;15.60;98.00;;;;;;5052983;28;20494;-66
2022/09/25 11:32:11;;;;;;;5.77;3.07;;;15.50;98.00;;;;;;5052832;28;20468;-64
2022/09/25 11:35:02;;;;;;;6.20;3.47;;;15.50;98.00;;;;;;5052987;28;20545;-66
2022/09/25 11:37:39;;;;;;;8.93;4.07;;;15.50;98.00;;;;;;5052969;28;20485;-66
2022/09/25 11:43:09;;;;;;;4.73;3.33;;;15.50;98.00;;;;;;5052871;28;20491;-65
2022/09/25 11:45:45;;;;;;;4.90;2.87;;;15.70;98.00;;;;;;5052944;28;20841;-65
2022/09/25 11:48:21;;;;;;;5.67;3.27;;;15.90;98.00;;;;;;5052939;28;20540;-65
2022/09/25 11:50:58;;;;;;;3.30;2.43;;;15.90;98.00;;;;;;5052764;28;20486;-65
2022/09/25 11:53:33;;;;;;;7.23;3.63;;;15.90;98.00;;;;;;5053058;28;20472;-64
2022/09/25 11:56:28;;;;;;;5.37;3.37;;;16.00;98.00;;;;;;5052562;28;20526;-66
2022/09/25 11:59:14;;;;;;;5.17;2.90;;;16.00;98.00;;;;;;5052437;28;20506;-66
2022/09/25 12:01:47;;;;;;;8.80;3.13;;;16.00;98.00;;;;;;5052386;28;20457;-66
2022/09/25 12:04:38;;;;;;;4.90;3.20;;;16.00;98.00;;;;;;5052284;28;20457;-66
2022/09/25 12:07:17;;;;;;;7.10;3.33;;;15.90;98.00;;;;;;5052111;28;20548;-66
2022/09/25 12:10:02;;;;;;;6.20;3.50;;;16.00;98.00;;;;;;5052421;28;20542;-65
2022/09/25 12:12:35;;;;;;;8.60;3.33;;;15.90;98.00;;;;;;5052052;28;20461;-65
2022/09/25 12:15:14;;;;;;;3.20;2.37;;;15.80;98.00;;;;;;5052210;28;20469;-68
2022/09/25 12:17:51;;;;;;;5.60;3.20;;;15.90;98.00;;;;;;5052241;28;21006;-69
2022/09/25 12:20:28;;;;;;;4.40;3.13;;;16.20;98.00;;;;;;5052050;28;20514;-69
2022/09/25 12:23:13;;;;;;;7.57;3.50;;;16.50;98.00;;;;;;5051757;28;20456;-70
2022/09/25 12:25:53;;;;;;;9.73;3.40;;;16.80;98.00;;;;;;5052154;28;20557;-65
2022/09/25 12:28:30;;;;;;;7.53;4.00;;;17.20;98.00;;;;;;5051058;28;20461;-66
2022/09/25 12:31:06;;;;;;;7.73;4.20;;;17.20;98.00;;;;;;5051902;28;20462;-66
2022/09/25 12:33:47;;;;;;;7.40;3.67;;;17.30;98.00;;;;;;5034490;28;20469;-66
2022/09/25 12:36:21;;;;;;;6.10;3.33;;;17.20;98.00;;;;;;5035851;28;20584;-65
2022/09/25 12:38:54;;;;;;;11.07;4.30;;;17.10;98.00;;;;;;5051809;28;20548;-66
2022/09/25 12:41:29;;;;;;;6.43;3.80;;;17.00;98.00;;;;;;5051966;28;20464;-65
2022/09/25 12:44:03;;;;;;;10.00;4.10;;;16.90;98.00;;;;;;5051912;28;20540;-65
2022/09/25 12:46:37;;;;;;;7.77;4.37;;;16.90;98.00;;;;;;5051665;28;20445;-66
2022/09/25 12:49:13;;;;;;;7.50;4.27;;;16.70;98.00;;;;;;5034997;28;21016;-66
2022/09/25 12:51:46;;;;;;;9.23;3.63;;;16.70;98.00;;;;;;5051846;28;20508;-65
2022/09/25 12:54:23;;;;;;;5.90;3.63;;;16.50;98.00;;;;;;5051849;28;20476;-66
2022/09/25 12:56:56;;;;;;;9.10;4.80;;;16.40;98.00;;;;;;5051567;28;20481;-65
2022/09/25 12:59:29;;;;;;;7.50;3.73;;;16.50;98.00;;;;;;5033947;28;20465;-66
2022/09/25 13:02:04;;;;;;;6.87;3.70;;;16.50;98.00;;;;;;5051546;28;20861;-65
2022/09/25 13:04:56;;;;;;;8.00;3.50;;;16.70;98.00;;;;;;5051448;28;20465;-65
2022/09/25 13:07:35;;;;;;;6.27;4.00;;;17.00;98.00;;;;;;5051328;28;20462;-65
2022/09/25 13:10:08;;;;;;;6.23;3.93;;;17.30;98.00;;;;;;5050701;28;20454;-65
2022/09/25 13:12:37;;;;;;;7.07;3.80;;;17.40;98.00;;;;;;5051487;28;20461;-66
2022/09/25 13:15:07;;;;;;;8.50;4.17;;;17.50;98.00;;;;;;5033720;28;20550;-66
2022/09/25 13:17:35;;;;;;;10.20;4.70;;;17.60;98.00;;;;;;5051244;28;20486;-66
2022/09/25 13:20:47;;;;;;;8.63;4.00;;;17.50;98.00;;;;;;5050922;28;20461;-65
2022/09/25 13:23:26;;;;;;;9.40;4.20;;;17.40;98.00;;;;;;5013641;28;20466;-65
2022/09/25 13:25:59;;;;;;;9.97;4.70;;;17.40;98.00;;;;;;5051042;28;21006;-65
2022/09/25 13:28:29;;;;;;;9.13;4.50;;;17.70;98.00;;;;;;5051060;28;20497;-65
2022/09/25 13:31:09;;;;;;;7.50;3.93;;;18.10;98.00;;;;;;5051164;28;20454;-65